createdAt,value
2023-01-27T00:01:15.688Z,92.20
2023-01-27T00:03:42.557Z,97.90
2023-01-27T00:06:09.001Z,94.60
2023-01-27T00:08:35.505Z,92.80
2023-01-27T00:11:02.260Z,95.00
2023-01-27T00:13:28.761Z,103.60
2023-01-27T00:15:55.939Z,97.90
2023-01-27T00:18:23.304Z,109.70
2023-01-27T00:20:49.977Z,118.30
2023-01-27T00:23:20.427Z,119.00
2023-01-27T00:25:46.931Z,118.30
2023-01-27T00:28:13.345Z,114.00
2023-01-27T00:30:39.840Z,112.30
2023-01-27T00:33:06.452Z,113.10
2023-01-27T00:35:32.918Z,118.60
2023-01-27T00:37:59.637Z,114.90
2023-01-27T00:40:26.106Z,122.80
2023-01-27T00:42:52.628Z,123.00
2023-01-27T00:45:19.154Z,124.10
2023-01-27T00:47:48.381Z,122.60
2023-01-27T00:50:15.499Z,123.20
2023-01-27T00:52:42.763Z,118.00
2023-01-27T00:55:10.227Z,116.90
2023-01-27T00:57:37.902Z,117.10
2023-01-27T01:00:06.144Z,124.40
2023-01-27T01:02:33.168Z,110.80
2023-01-27T01:04:59.689Z,123.20
2023-01-27T01:07:26.162Z,112.40
2023-01-27T01:09:53.072Z,115.40
2023-01-27T01:12:19.580Z,118.70
2023-01-27T01:14:46.337Z,138.10
2023-01-27T01:17:12.914Z,147.70
2023-01-27T01:19:39.389Z,143.20
2023-01-27T01:22:06.188Z,163.70
2023-01-27T01:24:32.606Z,110.70
2023-01-27T01:26:59.085Z,113.80
2023-01-27T01:29:25.659Z,117.90
2023-01-27T01:31:52.431Z,119.70
2023-01-27T01:34:18.937Z,116.90
2023-01-27T01:36:45.516Z,110.20
2023-01-27T01:39:12.048Z,122.30
2023-01-27T01:41:38.588Z,119.60
2023-01-27T01:44:37.783Z,122.20
2023-01-27T01:47:04.339Z,115.80
2023-01-27T01:49:36.901Z,117.80
2023-01-27T01:52:09.239Z,116.20
2023-01-27T01:54:45.097Z,114.10
2023-01-27T01:57:23.137Z,114.50
2023-01-27T02:00:04.165Z,102.20
2023-01-27T02:02:31.877Z,110.60
2023-01-27T02:05:08.593Z,121.10
2023-01-27T02:07:51.106Z,120.30
2023-01-27T02:10:17.954Z,110.70
2023-01-27T02:12:44.902Z,116.50
2023-01-27T02:15:12.950Z,117.10
2023-01-27T02:17:40.542Z,119.20
2023-01-27T02:20:21.619Z,111.70
2023-01-27T02:23:00.143Z,89.80
2023-01-27T02:25:37.926Z,112.50
2023-01-27T02:28:07.383Z,115.20
2023-01-27T02:30:34.581Z,111.60
2023-01-27T02:33:01.578Z,117.70
2023-01-27T02:35:39.249Z,118.40
2023-01-27T02:38:07.648Z,116.70
2023-01-27T02:40:36.781Z,109.80
2023-01-27T02:43:04.849Z,120.10
2023-01-27T02:45:31.684Z,110.70
2023-01-27T02:47:58.347Z,112.20
2023-01-27T02:50:24.842Z,117.10
2023-01-27T02:52:51.397Z,115.90
2023-01-27T02:55:18.059Z,112.10
2023-01-27T02:57:44.720Z,111.90
2023-01-27T03:00:12.029Z,110.80
2023-01-27T03:02:38.950Z,108.50
2023-01-27T03:05:05.819Z,109.10
2023-01-27T03:07:32.489Z,108.10
2023-01-27T03:09:59.036Z,114.30
2023-01-27T03:12:25.587Z,118.00
2023-01-27T03:14:52.788Z,106.10
2023-01-27T03:17:19.274Z,106.50
2023-01-27T03:19:45.701Z,112.20
2023-01-27T03:22:12.249Z,106.60
2023-01-27T03:24:39.699Z,105.90
2023-01-27T03:27:06.463Z,106.60
2023-01-27T03:29:32.928Z,109.50
2023-01-27T03:31:59.445Z,102.40
2023-01-27T03:34:26.040Z,107.60
2023-01-27T03:36:52.506Z,98.40
2023-01-27T03:39:19.407Z,110.00
2023-01-27T03:41:45.840Z,101.00
2023-01-27T03:44:12.340Z,100.10
2023-01-27T03:46:38.823Z,104.70
2023-01-27T03:49:05.260Z,108.30
2023-01-27T03:51:31.928Z,104.10
2023-01-27T03:53:58.442Z,104.80
2023-01-27T03:56:24.884Z,101.90
2023-01-27T03:58:51.512Z,91.10
2023-01-27T04:01:20.925Z,90.10
2023-01-27T04:03:48.376Z,87.10
2023-01-27T04:06:20.647Z,93.70
2023-01-27T04:08:47.358Z,93.10
2023-01-27T04:11:13.845Z,91.80
2023-01-27T04:13:40.372Z,91.40
2023-01-27T04:16:07.669Z,92.50
2023-01-27T04:18:34.227Z,81.70
2023-01-27T04:21:00.736Z,77.20
2023-01-27T04:23:27.766Z,94.00
2023-01-27T04:25:54.204Z,94.20
2023-01-27T04:28:33.341Z,94.10
2023-01-27T04:31:07.794Z,101.40
2023-01-27T04:33:34.509Z,107.90
2023-01-27T04:36:01.155Z,102.80
2023-01-27T04:38:27.893Z,107.00
2023-01-27T04:40:54.539Z,98.30
2023-01-27T04:43:21.464Z,107.80
2023-01-27T04:45:47.963Z,104.70
2023-01-27T04:48:15.197Z,108.40
2023-01-27T04:50:43.586Z,108.50
2023-01-27T04:53:10.171Z,102.90
2023-01-27T04:55:37.402Z,103.00
2023-01-27T04:58:04.909Z,104.60
2023-01-27T05:00:31.943Z,101.30
2023-01-27T05:02:58.603Z,107.20
2023-01-27T05:05:25.177Z,107.30
2023-01-27T05:07:53.069Z,103.00
2023-01-27T05:10:19.916Z,101.50
2023-01-27T05:12:46.555Z,105.30
2023-01-27T05:15:13.237Z,102.90
2023-01-27T05:17:39.916Z,107.00
2023-01-27T05:20:06.992Z,100.60
2023-01-27T05:22:33.541Z,111.00
2023-01-27T05:25:00.180Z,107.10
2023-01-27T05:27:27.131Z,112.70
2023-01-27T05:29:53.665Z,108.80
2023-01-27T05:32:20.722Z,106.60
2023-01-27T05:34:47.165Z,107.00
2023-01-27T05:37:14.239Z,105.50
2023-01-27T05:39:41.173Z,106.80
2023-01-27T05:42:07.711Z,104.50
2023-01-27T05:44:34.381Z,115.00
2023-01-27T05:47:03.001Z,111.70
2023-01-27T05:49:29.796Z,104.10
2023-01-27T05:51:56.543Z,104.70
2023-01-27T05:54:23.280Z,106.00
2023-01-27T05:56:49.936Z,123.00
2023-01-27T05:59:16.437Z,114.80
2023-01-27T06:01:43.122Z,116.20
2023-01-27T06:04:10.101Z,108.10
2023-01-27T06:06:36.696Z,115.40
2023-01-27T06:09:03.843Z,105.20
2023-01-27T06:11:30.284Z,104.30
2023-01-27T06:13:57.074Z,107.30
2023-01-27T06:16:24.131Z,97.30
2023-01-27T06:18:50.802Z,118.80
2023-01-27T06:21:18.184Z,106.70
2023-01-27T06:23:44.734Z,108.20
2023-01-27T06:26:14.637Z,106.70
2023-01-27T06:28:41.078Z,101.70
2023-01-27T06:31:14.804Z,110.30
2023-01-27T06:33:41.792Z,107.60
2023-01-27T06:36:11.350Z,113.50
2023-01-27T06:38:38.284Z,118.30
2023-01-27T06:41:05.404Z,109.30
2023-01-27T06:43:32.009Z,108.10
2023-01-27T06:45:58.799Z,108.90
2023-01-27T06:48:26.630Z,116.30
2023-01-27T06:50:54.803Z,98.70
2023-01-27T06:53:21.370Z,102.30
2023-01-27T06:55:48.196Z,112.00
2023-01-27T06:58:15.535Z,94.60
2023-01-27T07:00:42.815Z,102.50
2023-01-27T07:03:11.637Z,99.80
2023-01-27T07:05:39.897Z,105.10
2023-01-27T07:08:06.704Z,97.20
2023-01-27T07:10:33.255Z,89.80
2023-01-27T07:13:07.763Z,91.90
2023-01-27T07:15:34.809Z,96.90
2023-01-27T07:18:02.210Z,89.20
2023-01-27T07:20:29.458Z,85.60
2023-01-27T07:23:04.597Z,87.60
2023-01-27T07:25:32.824Z,91.50
2023-01-27T07:28:00.707Z,87.00
2023-01-27T07:30:28.485Z,91.40
2023-01-27T07:32:55.480Z,83.30
2023-01-27T07:35:23.417Z,77.50
2023-01-27T07:37:50.263Z,80.30
2023-01-27T07:40:17.676Z,83.80
2023-01-27T07:42:44.218Z,79.30
2023-01-27T07:45:11.027Z,84.30
2023-01-27T07:47:37.959Z,79.50
2023-01-27T07:50:05.126Z,75.90
2023-01-27T07:52:31.656Z,74.80
2023-01-27T07:54:58.245Z,80.10
2023-01-27T07:57:24.816Z,71.80
2023-01-27T07:59:51.452Z,78.80
2023-01-27T08:02:18.071Z,71.80
2023-01-27T08:04:52.941Z,77.70
2023-01-27T08:07:20.467Z,74.90
2023-01-27T08:09:47.035Z,75.50
2023-01-27T08:12:13.549Z,66.30
2023-01-27T08:14:40.023Z,63.00
2023-01-27T08:17:06.726Z,66.70
2023-01-27T08:19:33.179Z,72.10
2023-01-27T08:21:59.699Z,69.80
2023-01-27T08:24:26.484Z,73.10
2023-01-27T08:26:53.121Z,62.90
2023-01-27T08:29:19.739Z,64.10
2023-01-27T08:31:48.363Z,56.70
2023-01-27T08:34:15.039Z,50.10
2023-01-27T08:36:41.819Z,61.90
2023-01-27T08:39:09.589Z,67.50
2023-01-27T08:41:36.056Z,67.60
2023-01-27T08:44:02.791Z,69.80
2023-01-27T08:46:29.248Z,68.60
2023-01-27T08:48:55.921Z,67.70
2023-01-27T08:51:22.434Z,70.20
2023-01-27T08:53:48.932Z,100.10
2023-01-27T08:56:15.706Z,66.60
2023-01-27T08:58:42.647Z,69.90
2023-01-27T09:01:09.656Z,65.50
2023-01-27T09:03:36.969Z,64.10
2023-01-27T09:06:05.100Z,68.40
2023-01-27T09:08:31.664Z,80.70
2023-01-27T09:10:58.205Z,59.00
2023-01-27T09:13:25.220Z,53.70
2023-01-27T09:15:52.812Z,56.30
2023-01-27T09:18:20.192Z,57.40
2023-01-27T09:20:47.037Z,57.20
2023-01-27T09:23:13.650Z,60.80
2023-01-27T09:25:40.725Z,58.40
2023-01-27T09:28:07.479Z,66.70
2023-01-27T09:30:33.932Z,60.70
2023-01-27T09:33:00.762Z,64.10
2023-01-27T09:35:36.399Z,63.80
2023-01-27T09:38:05.771Z,56.60
2023-01-27T09:40:36.652Z,61.80
2023-01-27T09:43:33.116Z,60.90
2023-01-27T09:46:18.287Z,56.60
2023-01-27T09:49:30.199Z,65.50
2023-01-27T09:52:15.261Z,69.50
2023-01-27T09:55:13.048Z,62.80
2023-01-27T09:57:57.904Z,60.20
2023-01-27T10:00:27.096Z,58.20
2023-01-27T10:03:10.745Z,61.00
2023-01-27T10:06:27.864Z,92.90
2023-01-27T10:09:12.240Z,66.10
2023-01-27T10:12:19.230Z,68.30
2023-01-27T10:15:02.564Z,137.90
2023-01-27T10:18:04.125Z,82.60
2023-01-27T10:20:44.542Z,61.30
2023-01-27T10:23:29.379Z,104.10
2023-01-27T10:26:31.437Z,138.40
2023-01-27T10:29:08.663Z,79.10
2023-01-27T10:31:50.388Z,75.20
2023-01-27T10:34:28.055Z,75.30
2023-01-27T10:37:00.296Z,75.30
2023-01-27T10:39:53.162Z,69.00
2023-01-27T10:42:35.283Z,74.50
2023-01-27T10:45:10.862Z,67.10
2023-01-27T10:48:19.445Z,112.20
2023-01-27T10:51:00.265Z,75.40
2023-01-27T10:53:37.755Z,72.10
2023-01-27T10:56:22.965Z,92.50
2023-01-27T10:59:03.793Z,87.00
2023-01-27T11:01:58.992Z,63.20
2023-01-27T11:04:25.658Z,69.50
2023-01-27T11:06:53.436Z,67.60
2023-01-27T11:09:31.612Z,87.00
2023-01-27T11:12:02.637Z,68.30
2023-01-27T11:14:44.037Z,80.60
2023-01-27T11:17:29.520Z,74.90
2023-01-27T11:20:26.966Z,89.10
2023-01-27T11:23:16.380Z,76.00
2023-01-27T11:26:10.100Z,75.40
2023-01-27T11:28:44.013Z,74.20
2023-01-27T11:31:16.974Z,70.30
2023-01-27T11:33:46.145Z,79.70
2023-01-27T11:36:12.791Z,75.70
2023-01-27T11:38:39.318Z,65.70
2023-01-27T11:41:06.060Z,68.40
2023-01-27T11:43:32.590Z,68.80
2023-01-27T11:46:04.980Z,63.90
2023-01-27T11:48:41.863Z,64.80
2023-01-27T11:51:19.953Z,65.10
2023-01-27T11:53:52.907Z,64.50
2023-01-27T11:56:20.022Z,65.70
2023-01-27T11:58:59.708Z,68.90
2023-01-27T12:01:51.087Z,69.50
2023-01-27T12:04:36.634Z,68.90
2023-01-27T12:07:10.625Z,61.50
2023-01-27T12:09:40.350Z,62.80
2023-01-27T12:12:19.266Z,69.10
2023-01-27T12:14:50.175Z,66.50
2023-01-27T12:17:31.670Z,65.80
2023-01-27T12:20:07.401Z,71.20
2023-01-27T12:22:40.402Z,76.90
2023-01-27T12:25:18.424Z,74.10
2023-01-27T12:27:53.171Z,75.80
2023-01-27T12:30:26.300Z,77.50
2023-01-27T12:32:54.324Z,73.20
2023-01-27T12:35:29.491Z,75.50
2023-01-27T12:38:13.313Z,68.20
2023-01-27T12:40:43.785Z,70.30
2023-01-27T12:43:17.346Z,72.50
2023-01-27T12:45:44.688Z,74.30
2023-01-27T12:48:14.121Z,72.80
2023-01-27T12:50:42.498Z,74.50
2023-01-27T12:53:13.657Z,76.20
2023-01-27T12:56:00.663Z,94.00
2023-01-27T12:58:40.305Z,72.00
2023-01-27T13:01:25.930Z,64.20
2023-01-27T13:04:03.135Z,69.60
2023-01-27T13:06:34.991Z,75.40
2023-01-27T13:09:02.828Z,60.30
2023-01-27T13:11:39.695Z,97.50
2023-01-27T13:14:18.732Z,77.70
2023-01-27T13:16:56.412Z,93.30
2023-01-27T13:19:32.791Z,66.70
2023-01-27T13:22:00.164Z,55.40
2023-01-27T13:24:42.348Z,58.80
2023-01-27T13:27:17.064Z,56.70
2023-01-27T13:29:54.628Z,54.00
2023-01-27T13:32:27.250Z,68.10
2023-01-27T13:35:05.412Z,58.20
2023-01-27T13:37:35.873Z,57.70
2023-01-27T13:40:23.874Z,63.30
2023-01-27T13:42:54.326Z,56.40
2023-01-27T13:45:32.720Z,57.50
2023-01-27T13:48:08.608Z,62.20
2023-01-27T13:50:44.752Z,51.30
2023-01-27T13:53:14.485Z,49.80
2023-01-27T13:56:09.154Z,50.30
2023-01-27T13:58:38.776Z,56.20
2023-01-27T14:01:15.878Z,48.60
2023-01-27T14:03:59.114Z,47.40
2023-01-27T14:06:28.272Z,75.30
2023-01-27T14:09:05.784Z,49.30
2023-01-27T14:11:51.071Z,59.80
2023-01-27T14:14:29.702Z,60.90
2023-01-27T14:17:17.947Z,48.40
2023-01-27T14:20:19.474Z,50.30
2023-01-27T14:23:09.286Z,56.00
2023-01-27T14:25:40.825Z,57.30
2023-01-27T14:28:48.731Z,55.00
2023-01-27T14:31:22.519Z,54.00
2023-01-27T14:34:00.994Z,65.00
2023-01-27T14:36:37.499Z,60.90
2023-01-27T14:39:26.913Z,67.10
2023-01-27T14:42:11.916Z,69.10
2023-01-27T14:44:44.322Z,64.80
2023-01-27T14:48:02.844Z,54.40
2023-01-27T14:50:44.788Z,63.20
2023-01-27T14:53:24.780Z,58.00
2023-01-27T14:56:09.314Z,60.60
2023-01-27T14:58:48.319Z,102.70
2023-01-27T15:01:51.284Z,60.40
2023-01-27T15:04:23.532Z,56.30
2023-01-27T15:07:02.790Z,65.10
2023-01-27T15:09:42.553Z,54.30
2023-01-27T15:12:17.807Z,60.50
2023-01-27T15:14:58.955Z,60.20
2023-01-27T15:17:37.884Z,61.80
2023-01-27T15:20:06.451Z,55.50
2023-01-27T15:22:33.592Z,52.40
2023-01-27T15:25:12.514Z,54.80
2023-01-27T15:27:40.250Z,60.80
2023-01-27T15:30:20.058Z,53.90
2023-01-27T15:32:46.574Z,57.50
2023-01-27T15:35:22.191Z,51.10
2023-01-27T15:38:06.909Z,93.80
2023-01-27T15:40:59.135Z,86.20
2023-01-27T15:43:29.618Z,210.40
2023-01-27T15:45:57.108Z,64.80
2023-01-27T15:48:34.110Z,94.30
2023-01-27T15:51:06.153Z,70.70
2023-01-27T15:53:32.572Z,169.80
2023-01-27T15:56:01.963Z,86.50
2023-01-27T15:58:34.255Z,135.10
2023-01-27T16:01:03.116Z,110.90
2023-01-27T16:04:05.013Z,164.90
2023-01-27T16:09:05.166Z,74.90
2023-01-27T16:11:31.830Z,98.80
2023-01-27T16:14:13.644Z,116.30
2023-01-27T16:17:08.089Z,68.30
2023-01-27T16:19:40.978Z,87.40
2023-01-27T16:22:14.103Z,75.20
2023-01-27T16:24:59.314Z,66.30
2023-01-27T16:27:51.887Z,66.60
2023-01-27T16:30:22.759Z,100.10
2023-01-27T16:33:05.259Z,70.30
2023-01-27T16:35:51.557Z,70.50
2023-01-27T16:38:31.725Z,79.20
2023-01-27T16:41:01.564Z,58.00
2023-01-27T16:43:32.577Z,47.40
2023-01-27T16:46:01.542Z,63.50
2023-01-27T16:48:38.200Z,78.10
2023-01-27T16:51:11.467Z,79.80
2023-01-27T16:53:38.312Z,86.10
2023-01-27T16:56:15.181Z,61.10
2023-01-27T16:58:46.672Z,50.30
2023-01-27T17:01:25.723Z,58.20
2023-01-27T17:04:04.845Z,46.00
2023-01-27T17:06:34.971Z,48.40
2023-01-27T17:09:01.666Z,55.50
2023-01-27T17:11:31.567Z,48.10
2023-01-27T17:14:03.360Z,92.50
2023-01-27T17:16:45.614Z,49.70
2023-01-27T17:19:24.919Z,67.90
2023-01-27T17:21:54.401Z,56.20
2023-01-27T17:24:37.237Z,45.40
2023-01-27T17:27:32.024Z,45.10
2023-01-27T17:30:13.635Z,53.00
2023-01-27T17:35:39.872Z,54.90
2023-01-27T17:38:21.928Z,62.00
2023-01-27T17:40:50.733Z,41.50
2023-01-27T17:43:24.896Z,38.50
2023-01-27T17:46:21.918Z,35.50
2023-01-27T17:49:12.534Z,37.20
2023-01-27T17:51:49.774Z,41.90
2023-01-27T17:54:21.676Z,41.20
2023-01-27T17:56:52.205Z,55.40
2023-01-27T17:59:24.111Z,57.70
2023-01-27T18:01:54.166Z,65.50
2023-01-27T18:04:23.650Z,45.40
2023-01-27T18:06:51.533Z,46.00
2023-01-27T18:09:21.121Z,42.10
2023-01-27T18:12:03.674Z,55.40
2023-01-27T18:14:35.051Z,44.90
2023-01-27T18:17:03.787Z,52.80
2023-01-27T18:19:31.043Z,43.10
2023-01-27T18:22:03.076Z,41.10
2023-01-27T18:24:30.088Z,44.20
2023-01-27T18:26:56.919Z,60.30
2023-01-27T18:29:41.574Z,57.50
2023-01-27T18:32:20.828Z,133.60
2023-01-27T18:34:56.882Z,68.80
2023-01-27T18:37:33.253Z,76.50
2023-01-27T18:40:02.967Z,75.60
2023-01-27T18:42:31.591Z,102.80
2023-01-27T18:44:58.074Z,96.70
2023-01-27T18:47:28.128Z,98.10
2023-01-27T18:50:15.024Z,82.50
2023-01-27T18:52:42.116Z,46.50
2023-01-27T18:55:19.882Z,38.30
2023-01-27T18:57:49.437Z,69.10
2023-01-27T19:00:19.179Z,57.30
2023-01-27T19:02:47.891Z,74.10
2023-01-27T19:05:17.938Z,114.90
2023-01-27T19:07:44.956Z,90.50
2023-01-27T19:10:20.865Z,59.40
2023-01-27T19:12:55.872Z,56.30
2023-01-27T19:15:23.632Z,79.70
2023-01-27T19:17:55.755Z,52.30
2023-01-27T19:20:30.397Z,87.30
2023-01-27T19:22:58.717Z,60.00
2023-01-27T19:25:29.827Z,97.90
2023-01-27T19:28:02.055Z,89.50
2023-01-27T19:30:31.403Z,70.10
2023-01-27T19:32:58.184Z,40.90
2023-01-27T19:35:28.436Z,46.30
2023-01-27T19:37:56.589Z,62.60
2023-01-27T19:40:28.099Z,53.40
2023-01-27T19:45:22.943Z,96.80
2023-01-27T19:47:49.911Z,42.90
2023-01-27T19:50:22.972Z,52.80
2023-01-27T19:52:50.468Z,51.00
2023-01-27T19:55:18.854Z,53.30
2023-01-27T19:57:45.395Z,103.80
2023-01-27T20:00:20.526Z,57.50
2023-01-27T20:02:47.381Z,54.80
2023-01-27T20:05:14.530Z,66.20
2023-01-27T20:07:41.991Z,61.30
2023-01-27T20:10:14.984Z,128.70
2023-01-27T20:12:41.744Z,101.40
2023-01-27T20:15:16.914Z,75.10
2023-01-27T20:17:44.428Z,69.00
2023-01-27T20:20:13.341Z,60.00
2023-01-27T20:22:40.174Z,54.90
2023-01-27T20:25:07.580Z,56.40
2023-01-27T20:27:34.377Z,61.20
2023-01-27T20:30:00.908Z,75.10
2023-01-27T20:32:27.697Z,100.50
2023-01-27T20:34:54.105Z,122.90
2023-01-27T20:37:20.836Z,86.60
2023-01-27T20:39:47.274Z,94.00
2023-01-27T20:42:13.685Z,83.70
2023-01-27T20:44:40.128Z,111.90
2023-01-27T20:47:06.701Z,144.20
2023-01-27T20:49:35.104Z,67.20
2023-01-27T20:52:01.752Z,74.30
2023-01-27T20:54:28.204Z,53.90
2023-01-27T20:56:54.704Z,72.60
2023-01-27T20:59:21.252Z,72.10
2023-01-27T21:01:47.769Z,61.20
2023-01-27T21:04:14.421Z,54.30
2023-01-27T21:06:41.067Z,70.10
2023-01-27T21:09:07.703Z,66.90
2023-01-27T21:11:34.269Z,82.40
2023-01-27T21:14:00.802Z,58.80
2023-01-27T21:16:27.357Z,61.10
2023-01-27T21:18:54.291Z,55.30
2023-01-27T21:21:29.416Z,54.20
2023-01-27T21:23:58.039Z,49.80
2023-01-27T21:26:24.963Z,104.00
2023-01-27T21:28:52.291Z,63.00
2023-01-27T21:31:22.911Z,50.30
2023-01-27T21:33:50.934Z,58.10
2023-01-27T21:36:18.917Z,75.00
2023-01-27T21:38:45.448Z,50.40
2023-01-27T21:41:15.462Z,57.80
2023-01-27T21:43:42.019Z,54.00
2023-01-27T21:46:08.543Z,83.50
2023-01-27T21:48:35.082Z,58.50
2023-01-27T21:51:01.645Z,60.20
2023-01-27T21:53:28.157Z,50.80
2023-01-27T21:55:54.796Z,59.20
2023-01-27T21:58:21.644Z,55.80
2023-01-27T22:00:48.286Z,63.20
2023-01-27T22:03:14.886Z,54.90
2023-01-27T22:05:41.463Z,52.70
2023-01-27T22:08:08.009Z,60.30
2023-01-27T22:10:34.488Z,60.00
2023-01-27T22:13:03.772Z,63.10
2023-01-27T22:16:04.377Z,60.30
2023-01-27T22:18:31.745Z,59.80
2023-01-27T22:21:01.381Z,62.30
2023-01-27T22:23:27.916Z,58.50
2023-01-27T22:25:54.433Z,54.90
2023-01-27T22:28:21.622Z,57.70
2023-01-27T22:30:48.331Z,57.60
2023-01-27T22:33:15.034Z,63.50
2023-01-27T22:35:41.521Z,59.90
2023-01-27T22:38:08.273Z,58.90
2023-01-27T22:40:34.785Z,57.00
2023-01-27T22:43:01.872Z,60.30
2023-01-27T22:45:28.426Z,59.00
2023-01-27T22:47:55.033Z,58.10
2023-01-27T22:50:21.682Z,65.70
2023-01-27T22:52:48.179Z,60.90
2023-01-27T22:55:15.099Z,56.90
2023-01-27T22:57:44.888Z,63.60
2023-01-27T23:00:11.968Z,66.70
2023-01-27T23:02:38.541Z,69.20
2023-01-27T23:05:05.655Z,69.20
2023-01-27T23:07:32.168Z,66.20
2023-01-27T23:09:58.856Z,70.00
2023-01-27T23:12:25.403Z,72.00
2023-01-27T23:14:51.890Z,77.10
2023-01-27T23:17:18.433Z,79.40
2023-01-27T23:19:44.965Z,84.90
2023-01-27T23:22:11.503Z,76.60
2023-01-27T23:24:38.008Z,71.70
2023-01-27T23:27:04.788Z,92.20
2023-01-27T23:29:31.304Z,91.20
2023-01-27T23:31:58.088Z,86.00
2023-01-27T23:34:24.730Z,80.30
2023-01-27T23:36:51.167Z,82.90
2023-01-27T23:39:19.851Z,86.30
2023-01-27T23:41:46.417Z,79.70
2023-01-27T23:44:13.375Z,94.50
2023-01-27T23:46:40.523Z,79.30
2023-01-27T23:49:07.112Z,77.00
2023-01-27T23:51:33.669Z,85.40
2023-01-27T23:54:00.138Z,71.90
2023-01-27T23:56:26.668Z,77.30
2023-01-27T23:58:53.321Z,75.20
